EIGRN BIKF-BIKF
Flight info
| Callsign | EIGRN |
|---|---|
| Flight time | 0h 7m |
| Altitude | 2000 |
| Route | VFR |
| Aircraft | DA42/L-SDFGRY/C |
Departure
| Time | 2026-04-28 20:12 |
|---|---|
| Airport | Keflavik International Airport (BIKF) |
Arrival
| Time | 2026-04-28 20:20 |
|---|---|
| Airport | Keflavik International Airport (BIKF) |
| Time | Latitude | Longitude | Altitude | Speed | Heading |
|---|---|---|---|---|---|
| 2026-04-28 20:01 | 63.97904 | -22.58988 | 171 ft | 0 kts | 202° |
| 2026-04-28 20:05 | 63.97900 | -22.58992 | 171 ft | 2 kts | 185° |
| 2026-04-28 20:05 | 63.97910 | -22.58854 | 168 ft | 21 kts | 60° |
| 2026-04-28 20:05 | 63.98011 | -22.58885 | 169 ft | 13 kts | 345° |
| 2026-04-28 20:06 | 63.98103 | -22.58931 | 169 ft | 14 kts | 339° |
| 2026-04-28 20:06 | 63.98190 | -22.59029 | 170 ft | 13 kts | 332° |
| 2026-04-28 20:06 | 63.98277 | -22.59096 | 170 ft | 13 kts | 332° |
| 2026-04-28 20:06 | 63.98364 | -22.59178 | 170 ft | 18 kts | 336° |
| 2026-04-28 20:07 | 63.98524 | -22.59289 | 175 ft | 25 kts | 0° |
| 2026-04-28 20:07 | 63.98637 | -22.59304 | 172 ft | 25 kts | 0° |
| 2026-04-28 20:07 | 63.98865 | -22.59384 | 170 ft | 19 kts | 342° |
| 2026-04-28 20:07 | 63.98930 | -22.59490 | 174 ft | 12 kts | 310° |
| 2026-04-28 20:08 | 63.98997 | -22.59654 | 172 ft | 19 kts | 302° |
| 2026-04-28 20:08 | 63.99073 | -22.59847 | 170 ft | 12 kts | 330° |
| 2026-04-28 20:08 | 63.99133 | -22.59952 | 170 ft | 10 kts | 326° |
| 2026-04-28 20:08 | 63.99170 | -22.60050 | 170 ft | 0 kts | 282° |
| 2026-04-28 20:10 | 63.99172 | -22.60108 | 168 ft | 11 kts | 268° |
| 2026-04-28 20:10 | 63.99171 | -22.60361 | 169 ft | 18 kts | 268° |
| 2026-04-28 20:10 | 63.99147 | -22.60535 | 170 ft | 7 kts | 190° |
| 2026-04-28 20:11 | 63.99133 | -22.60541 | 170 ft | 2 kts | 192° |
| 2026-04-28 20:11 | 63.98943 | -22.60537 | 185 ft | 46 kts | 182° |
| 2026-04-28 20:11 | 63.98539 | -22.60530 | 254 ft | 66 kts | 184° |
| 2026-04-28 20:11 | 63.98031 | -22.60510 | 303 ft | 80 kts | 186° |
| 2026-04-28 20:12 | 63.97462 | -22.60558 | 407 ft | 84 kts | 186° |
| 2026-04-28 20:12 | 63.96872 | -22.60518 | 477 ft | 83 kts | 182° |
| 2026-04-28 20:12 | 63.96410 | -22.60914 | 715 ft | 75 kts | 233° |
| 2026-04-28 20:12 | 63.96392 | -22.61782 | 790 ft | 95 kts | 268° |
| 2026-04-28 20:13 | 63.96889 | -22.63757 | 732 ft | 113 kts | 286° |
| 2026-04-28 20:13 | 63.97255 | -22.65221 | 773 ft | 107 kts | 280° |
| 2026-04-28 20:13 | 63.97826 | -22.66341 | 867 ft | 125 kts | 338° |
| 2026-04-28 20:13 | 63.98733 | -22.66205 | 841 ft | 136 kts | 1° |
| 2026-04-28 20:14 | 63.99658 | -22.65976 | 808 ft | 133 kts | 1° |
| 2026-04-28 20:14 | 64.00487 | -22.65242 | 814 ft | 125 kts | 57° |
| 2026-04-28 20:14 | 64.00778 | -22.63528 | 724 ft | 116 kts | 94° |
| 2026-04-28 20:14 | 64.00653 | -22.61913 | 590 ft | 105 kts | 129° |
| 2026-04-28 20:15 | 64.00275 | -22.60637 | 443 ft | 85 kts | 165° |
| 2026-04-28 20:15 | 63.99730 | -22.60506 | 458 ft | 79 kts | 186° |
| 2026-04-28 20:15 | 63.99143 | -22.60512 | 538 ft | 90 kts | 186° |
| 2026-04-28 20:15 | 63.98488 | -22.60576 | 577 ft | 97 kts | 186° |
| 2026-04-28 20:16 | 63.97781 | -22.60526 | 507 ft | 105 kts | 180° |
| 2026-04-28 20:16 | 63.97055 | -22.60464 | 501 ft | 104 kts | 186° |
| 2026-04-28 20:16 | 63.96653 | -22.61405 | 862 ft | 92 kts | 262° |
| 2026-04-28 20:16 | 63.96956 | -22.62915 | 815 ft | 114 kts | 282° |
| 2026-04-28 20:17 | 63.97221 | -22.64605 | 700 ft | 111 kts | 270° |
| 2026-04-28 20:17 | 63.97637 | -22.65968 | 888 ft | 117 kts | 331° |
| 2026-04-28 20:17 | 63.98561 | -22.66104 | 739 ft | 139 kts | 351° |
| 2026-04-28 20:17 | 63.99490 | -22.66191 | 711 ft | 132 kts | 346° |
| 2026-04-28 20:18 | 64.00392 | -22.66138 | 723 ft | 132 kts | 21° |
| 2026-04-28 20:18 | 64.00819 | -22.65252 | 707 ft | 125 kts | 69° |
| 2026-04-28 20:18 | 64.01086 | -22.62769 | 603 ft | 118 kts | 103° |
| 2026-04-28 20:18 | 64.00962 | -22.61088 | 532 ft | 87 kts | 154° |
| 2026-04-28 20:19 | 64.00451 | -22.60535 | 425 ft | 82 kts | 176° |
| 2026-04-28 20:19 | 63.99869 | -22.60502 | 329 ft | 85 kts | 185° |
| 2026-04-28 20:19 | 63.99268 | -22.60512 | 224 ft | 90 kts | 184° |
| 2026-04-28 20:19 | 63.98682 | -22.60536 | 171 ft | 70 kts | 185° |
| 2026-04-28 20:20 | 63.98464 | -22.60536 | 172 ft | 6 kts | 184° |
| 2026-04-28 20:20 | 63.98233 | -22.60536 | 187 ft | 51 kts | 180° |
| 2026-04-28 20:20 | 63.97877 | -22.60393 | 370 ft | 65 kts | 176° |
| 2026-04-28 20:20 | 63.97380 | -22.60265 | 512 ft | 79 kts | 189° |
| 2026-04-28 20:21 | 63.96794 | -22.60366 | 718 ft | 84 kts | 187° |
| 2026-04-28 20:21 | 63.96157 | -22.60436 | 797 ft | 95 kts | 188° |
| 2026-04-28 20:21 | 63.95596 | -22.59701 | 955 ft | 115 kts | 122° |
| 2026-04-28 20:21 | 63.95926 | -22.57821 | 943 ft | 150 kts | 50° |
| 2026-04-28 20:22 | 63.96732 | -22.56352 | 976 ft | 151 kts | 40° |
| 2026-04-28 20:22 | 63.97504 | -22.54810 | 965 ft | 151 kts | 45° |
| 2026-04-28 20:22 | 63.98317 | -22.53331 | 1029 ft | 148 kts | 41° |
| 2026-04-28 20:22 | 63.99113 | -22.51853 | 1139 ft | 147 kts | 45° |
| 2026-04-28 20:23 | 63.99900 | -22.50378 | 1213 ft | 146 kts | 45° |
| 2026-04-28 20:23 | 64.00698 | -22.48985 | 1299 ft | 143 kts | 41° |
| 2026-04-28 20:23 | 64.01487 | -22.47649 | 1367 ft | 141 kts | 38° |
| 2026-04-28 20:23 | 64.02062 | -22.46947 | 1396 ft | 142 kts | 25° |
| 2026-04-28 20:24 | 64.03326 | -22.46573 | 1444 ft | 135 kts | 334° |
| 2026-04-28 20:24 | 64.04027 | -22.47674 | 1486 ft | 116 kts | 288° |
| 2026-04-28 20:24 | 64.04386 | -22.49302 | 1485 ft | 116 kts | 266° |
| 2026-04-28 20:24 | 64.04332 | -22.51182 | 1359 ft | 131 kts | 248° |
| 2026-04-28 20:25 | 64.04079 | -22.53297 | 1227 ft | 146 kts | 245° |
| 2026-04-28 20:25 | 64.03733 | -22.55511 | 1204 ft | 143 kts | 237° |
| 2026-04-28 20:25 | 64.03175 | -22.57285 | 1201 ft | 134 kts | 216° |
| 2026-04-28 20:25 | 64.02443 | -22.58674 | 1028 ft | 141 kts | 215° |
| 2026-04-28 20:26 | 64.01610 | -22.59786 | 692 ft | 131 kts | 201° |
| 2026-04-28 20:26 | 64.00809 | -22.60330 | 473 ft | 115 kts | 195° |
| 2026-04-28 20:26 | 64.00036 | -22.60524 | 302 ft | 110 kts | 182° |
| 2026-04-28 20:26 | 63.99298 | -22.60517 | 211 ft | 103 kts | 184° |
| 2026-04-28 20:27 | 63.98752 | -22.60509 | 168 ft | 52 kts | 187° |
| 2026-04-28 20:27 | 63.98517 | -22.60411 | 172 ft | 25 kts | 130° |
| 2026-04-28 20:27 | 63.98501 | -22.60079 | 175 ft | 37 kts | 88° |
| 2026-04-28 20:27 | 63.98506 | -22.59697 | 175 ft | 31 kts | 96° |
| 2026-04-28 20:28 | 63.98582 | -22.59286 | 174 ft | 29 kts | 5° |
| 2026-04-28 20:28 | 63.98836 | -22.59363 | 169 ft | 27 kts | 343° |
| 2026-04-28 20:28 | 63.98936 | -22.59554 | 174 ft | 16 kts | 321° |
| 2026-04-28 20:28 | 63.99049 | -22.59788 | 170 ft | 25 kts | 315° |
| 2026-04-28 20:29 | 63.99144 | -22.59992 | 170 ft | 19 kts | 314° |
| 2026-04-28 20:29 | 63.99171 | -22.60090 | 170 ft | 0 kts | 275° |
| 2026-04-28 20:32 | 63.99171 | -22.60091 | 170 ft | 1 kts | 274° |
| 2026-04-28 20:32 | 63.99171 | -22.60261 | 169 ft | 17 kts | 252° |
| 2026-04-28 20:32 | 63.99170 | -22.60482 | 170 ft | 9 kts | 250° |
| 2026-04-28 20:33 | 63.99139 | -22.60542 | 170 ft | 7 kts | 195° |
| 2026-04-28 20:33 | 63.99124 | -22.60545 | 171 ft | 0 kts | 174° |
| 2026-04-28 20:34 | 63.99013 | -22.60541 | 170 ft | 36 kts | 181° |
| 2026-04-28 20:35 | 63.98704 | -22.60532 | 316 ft | 47 kts | 189° |
| 2026-04-28 20:35 | 63.98320 | -22.60515 | 325 ft | 66 kts | 184° |
| 2026-04-28 20:35 | 63.97879 | -22.60563 | 321 ft | 61 kts | 187° |
| 2026-04-28 20:35 | 63.97446 | -22.60512 | 318 ft | 64 kts | 181° |
| 2026-04-28 20:36 | 63.97003 | -22.60412 | 322 ft | 63 kts | 180° |
| 2026-04-28 20:36 | 63.96586 | -22.60417 | 353 ft | 55 kts | 186° |
| 2026-04-28 20:36 | 63.96317 | -22.60618 | 548 ft | 39 kts | 226° |
| 2026-04-28 20:36 | 63.96422 | -22.61443 | 703 ft | 79 kts | 285° |
| 2026-04-28 20:37 | 63.96838 | -22.62463 | 768 ft | 91 kts | 294° |
| 2026-04-28 20:37 | 63.97305 | -22.63542 | 781 ft | 99 kts | 294° |
| 2026-04-28 20:37 | 63.97751 | -22.64721 | 798 ft | 99 kts | 294° |
| 2026-04-28 20:37 | 63.98309 | -22.65690 | 870 ft | 106 kts | 330° |
| 2026-04-28 20:38 | 63.99096 | -22.65656 | 1000 ft | 120 kts | 2° |
| 2026-04-28 20:38 | 63.99926 | -22.65343 | 1119 ft | 122 kts | 4° |
| 2026-04-28 20:38 | 64.00777 | -22.64953 | 1201 ft | 125 kts | 4° |
| 2026-04-28 20:38 | 64.01612 | -22.64694 | 1476 ft | 113 kts | 355° |
| 2026-04-28 20:39 | 64.02385 | -22.64618 | 1822 ft | 88 kts | 344° |
| 2026-04-28 20:39 | 64.03126 | -22.64724 | 1878 ft | 114 kts | 342° |